createdAt,value
2023-05-24T00:02:52.554Z,14.44
2023-05-24T00:05:21.016Z,14.42
2023-05-24T00:07:40.776Z,14.40
2023-05-24T00:10:07.279Z,14.41
2023-05-24T00:12:33.117Z,14.42
2023-05-24T00:14:52.734Z,14.43
2023-05-24T00:17:20.125Z,14.37
2023-05-24T00:19:41.356Z,14.34
2023-05-24T00:22:15.297Z,14.31
2023-05-24T00:24:41.905Z,14.28
2023-05-24T00:27:06.795Z,14.26
2023-05-24T00:29:27.145Z,14.22
2023-05-24T00:31:58.855Z,14.19
2023-05-24T00:34:25.179Z,14.10
2023-05-24T00:36:44.371Z,14.01
2023-05-24T00:39:04.110Z,13.95
2023-05-24T00:41:23.698Z,13.96
2023-05-24T00:44:01.327Z,13.98
2023-05-24T00:46:36.670Z,14.00
2023-05-24T00:49:03.797Z,14.03
2023-05-24T00:51:27.557Z,14.06
2023-05-24T00:54:02.886Z,14.13
2023-05-24T00:56:27.357Z,14.17
2023-05-24T00:58:56.244Z,14.23
2023-05-24T01:01:32.078Z,14.29
2023-05-24T01:03:56.501Z,14.33
2023-05-24T01:06:23.040Z,14.36
2023-05-24T01:09:20.240Z,14.37
2023-05-24T01:12:07.442Z,14.32
2023-05-24T01:14:39.592Z,14.27
2023-05-24T01:17:19.101Z,14.22
2023-05-24T01:20:07.906Z,14.17
2023-05-24T01:23:05.016Z,14.17
2023-05-24T01:25:49.580Z,14.17
2023-05-24T01:28:08.574Z,14.14
2023-05-24T01:30:41.602Z,14.10
2023-05-24T01:33:11.266Z,14.07
2023-05-24T01:35:45.126Z,14.05
2023-05-24T01:38:12.118Z,14.06
2023-05-24T01:40:48.057Z,14.00
2023-05-24T01:43:20.030Z,13.97
2023-05-24T01:45:58.453Z,13.91
2023-05-24T01:48:23.000Z,13.86
2023-05-24T01:50:56.642Z,13.85
2023-05-24T01:53:21.549Z,13.81
2023-05-24T01:55:47.333Z,13.79
2023-05-24T01:58:17.319Z,13.77
2023-05-24T02:00:50.956Z,13.71
2023-05-24T02:03:20.161Z,13.67
2023-05-24T02:05:45.830Z,13.64
2023-05-24T02:08:21.196Z,13.59
2023-05-24T02:10:55.792Z,13.60
2023-05-24T02:13:21.471Z,13.60
2023-05-24T02:15:57.031Z,13.56
2023-05-24T02:18:25.724Z,13.52
2023-05-24T02:20:54.402Z,13.51
2023-05-24T02:23:25.362Z,13.47
2023-05-24T02:26:00.049Z,13.42
2023-05-24T02:28:27.321Z,13.36
2023-05-24T02:31:01.791Z,13.31
2023-05-24T02:33:33.002Z,13.26
2023-05-24T02:36:05.577Z,13.23
2023-05-24T02:38:30.560Z,13.21
2023-05-24T02:40:59.053Z,13.18
2023-05-24T02:43:21.913Z,13.15
2023-05-24T02:45:47.435Z,13.12
2023-05-24T02:48:21.841Z,13.15
2023-05-24T02:50:48.622Z,13.18
2023-05-24T02:53:22.790Z,13.19
2023-05-24T02:55:45.160Z,13.17
2023-05-24T02:58:21.051Z,13.17
2023-05-24T03:00:48.753Z,13.15
2023-05-24T03:03:26.235Z,13.15
2023-05-24T03:06:00.148Z,13.17
2023-05-24T03:08:21.396Z,13.21
2023-05-24T03:10:56.502Z,13.24
2023-05-24T03:13:30.998Z,13.26
2023-05-24T03:15:58.786Z,13.29
2023-05-24T03:18:36.468Z,13.33
2023-05-24T03:21:05.598Z,13.37
2023-05-24T03:23:34.297Z,13.40
2023-05-24T03:26:08.650Z,13.41
2023-05-24T03:28:45.522Z,13.39
2023-05-24T03:31:13.779Z,13.37
2023-05-24T03:33:47.321Z,13.33
2023-05-24T03:36:22.364Z,13.29
2023-05-24T03:38:56.090Z,13.22
2023-05-24T03:41:25.681Z,13.18
2023-05-24T03:43:59.583Z,13.13
2023-05-24T03:46:35.112Z,13.08
2023-05-24T03:49:04.912Z,13.06
2023-05-24T03:51:31.983Z,13.03
2023-05-24T03:54:06.108Z,13.00
2023-05-24T03:56:40.670Z,13.00
2023-05-24T03:59:15.140Z,12.99
2023-05-24T04:01:48.671Z,12.96
2023-05-24T04:04:24.433Z,12.95
2023-05-24T04:06:44.584Z,12.89
2023-05-24T04:09:19.178Z,12.86
2023-05-24T04:11:46.523Z,12.84
2023-05-24T04:14:13.305Z,12.81
2023-05-24T04:16:42.812Z,12.75
2023-05-24T04:19:08.626Z,12.70
2023-05-24T04:21:36.485Z,12.64
2023-05-24T04:24:05.124Z,12.57
2023-05-24T04:26:39.445Z,12.53
2023-05-24T04:29:14.222Z,12.49
2023-05-24T04:31:50.172Z,12.42
2023-05-24T04:34:18.804Z,12.35
2023-05-24T04:36:53.708Z,12.26
2023-05-24T04:39:20.391Z,12.21
2023-05-24T04:41:52.120Z,12.14
2023-05-24T04:44:27.496Z,12.08
2023-05-24T04:46:54.667Z,12.05
2023-05-24T04:49:18.309Z,12.00
2023-05-24T04:51:52.913Z,11.94
2023-05-24T04:54:22.821Z,11.90
2023-05-24T04:56:46.689Z,11.84
2023-05-24T04:59:15.853Z,11.80
2023-05-24T05:01:51.016Z,11.76
2023-05-24T05:04:18.652Z,11.69
2023-05-24T05:06:51.679Z,11.63
2023-05-24T05:09:25.908Z,11.58
2023-05-24T05:11:49.494Z,11.54
2023-05-24T05:14:14.881Z,11.50
2023-05-24T05:16:49.779Z,11.43
2023-05-24T05:19:24.064Z,11.38
2023-05-24T05:21:59.227Z,11.35
2023-05-24T05:24:32.758Z,11.29
2023-05-24T05:27:02.662Z,11.23
2023-05-24T05:29:36.996Z,11.17
2023-05-24T05:32:13.357Z,11.12
2023-05-24T05:34:48.637Z,11.07
2023-05-24T05:37:23.617Z,11.03
2023-05-24T05:39:51.564Z,10.98
2023-05-24T05:42:15.266Z,10.93
2023-05-24T05:44:53.865Z,10.89
2023-05-24T05:47:29.387Z,10.84
2023-05-24T05:49:59.439Z,10.80
2023-05-24T05:52:26.261Z,10.76
2023-05-24T05:55:01.510Z,10.72
2023-05-24T05:57:34.025Z,10.69
2023-05-24T06:00:11.231Z,10.66
2023-05-24T06:02:47.488Z,10.63
2023-05-24T06:05:14.652Z,10.59
2023-05-24T06:07:45.532Z,10.56
2023-05-24T06:10:14.872Z,10.52
2023-05-24T06:12:41.696Z,10.49
2023-05-24T06:15:17.127Z,10.47
2023-05-24T06:17:51.169Z,10.44
2023-05-24T06:20:26.209Z,10.41
2023-05-24T06:22:52.403Z,10.38
2023-05-24T06:25:22.244Z,10.34
2023-05-24T06:27:56.154Z,10.31
2023-05-24T06:30:18.555Z,10.30
2023-05-24T06:32:47.207Z,10.28
2023-05-24T06:35:22.501Z,10.26
2023-05-24T06:37:52.569Z,10.23
2023-05-24T06:40:26.957Z,10.19
2023-05-24T06:42:55.475Z,10.16
2023-05-24T06:45:29.809Z,10.12
2023-05-24T06:48:04.240Z,10.07
2023-05-24T06:50:24.917Z,10.04
2023-05-24T06:52:58.860Z,9.99
2023-05-24T06:55:18.998Z,9.95
2023-05-24T06:57:47.678Z,9.91
2023-05-24T07:00:17.241Z,9.88
2023-05-24T07:02:55.475Z,9.86
2023-05-24T07:05:27.390Z,9.83
2023-05-24T07:08:03.091Z,9.78
2023-05-24T07:10:30.443Z,9.75
2023-05-24T07:13:05.256Z,9.72
2023-05-24T07:15:39.477Z,9.69
2023-05-24T07:18:10.885Z,9.66
2023-05-24T07:20:50.791Z,9.63
2023-05-24T07:23:16.604Z,9.61
2023-05-24T07:25:44.154Z,9.60
2023-05-24T07:28:21.181Z,9.58
2023-05-24T07:30:56.244Z,9.54
2023-05-24T07:33:29.436Z,9.51
2023-05-24T07:36:06.010Z,9.48
2023-05-24T07:38:32.948Z,9.46
2023-05-24T07:41:10.427Z,9.44
2023-05-24T07:43:44.658Z,9.42
2023-05-24T07:46:18.707Z,9.40
2023-05-24T07:48:55.749Z,9.38
2023-05-24T07:51:23.718Z,9.35
2023-05-24T07:53:57.399Z,9.32
2023-05-24T07:56:31.376Z,9.30
2023-05-24T07:59:00.541Z,9.28
2023-05-24T08:01:24.668Z,9.26
2023-05-24T08:04:06.020Z,9.24
2023-05-24T08:06:40.214Z,9.20
2023-05-24T08:09:13.499Z,9.19
2023-05-24T08:11:47.512Z,9.17
2023-05-24T08:14:11.610Z,9.15
2023-05-24T08:16:46.186Z,9.13
2023-05-24T08:19:12.798Z,9.11
2023-05-24T08:21:43.144Z,9.09
2023-05-24T08:24:03.662Z,9.07
2023-05-24T08:26:37.529Z,9.05
2023-05-24T08:29:12.168Z,9.02
2023-05-24T08:31:39.984Z,8.98
2023-05-24T08:34:13.946Z,8.95
2023-05-24T08:36:48.326Z,8.91
2023-05-24T08:39:23.895Z,8.88
2023-05-24T08:42:07.293Z,8.85
2023-05-24T08:44:34.847Z,8.83
2023-05-24T08:47:02.589Z,8.82
2023-05-24T08:49:33.815Z,8.80
2023-05-24T08:52:10.479Z,8.78
2023-05-24T08:54:36.958Z,8.75
2023-05-24T08:57:14.037Z,8.71
2023-05-24T08:59:47.944Z,8.68
2023-05-24T09:02:17.939Z,8.65
2023-05-24T09:04:55.932Z,8.61
2023-05-24T09:07:21.949Z,8.60
2023-05-24T09:09:59.132Z,8.58
2023-05-24T09:12:39.088Z,8.57
2023-05-24T09:15:17.008Z,8.54
2023-05-24T09:17:43.104Z,8.50
2023-05-24T09:20:17.773Z,8.50
2023-05-24T09:22:54.380Z,8.47
2023-05-24T09:25:31.250Z,8.43
2023-05-24T09:28:10.867Z,8.41
2023-05-24T09:30:46.464Z,8.40
2023-05-24T09:33:10.741Z,8.40
2023-05-24T09:35:34.368Z,8.40
2023-05-24T09:38:02.595Z,8.41
2023-05-24T09:40:36.670Z,8.40
2023-05-24T09:43:14.870Z,8.39
2023-05-24T09:45:52.385Z,8.38
2023-05-24T09:48:27.613Z,8.35
2023-05-24T09:51:12.838Z,8.32
2023-05-24T09:53:37.003Z,8.29
2023-05-24T09:55:58.858Z,8.28
2023-05-24T09:58:23.659Z,8.25
2023-05-24T10:00:52.746Z,8.22
2023-05-24T10:03:28.725Z,8.21
2023-05-24T10:05:58.682Z,8.19
2023-05-24T10:08:33.250Z,8.16
2023-05-24T10:11:08.908Z,8.15
2023-05-24T10:13:40.159Z,8.13
2023-05-24T10:16:08.862Z,8.11
2023-05-24T10:18:37.644Z,8.10
2023-05-24T10:21:14.338Z,8.08
2023-05-24T10:23:47.551Z,8.05
2023-05-24T10:26:15.979Z,8.03
2023-05-24T10:28:56.071Z,8.01
2023-05-24T10:31:19.281Z,8.00
2023-05-24T10:34:01.407Z,7.99
2023-05-24T10:36:43.161Z,8.00
2023-05-24T10:39:18.869Z,7.99
2023-05-24T10:41:52.169Z,7.98
2023-05-24T10:44:25.333Z,7.97
2023-05-24T10:47:18.122Z,7.96
2023-05-24T10:50:00.478Z,7.95
2023-05-24T10:52:39.618Z,7.95
2023-05-24T10:55:17.051Z,7.94
2023-05-24T10:57:41.777Z,7.92
2023-05-24T11:00:34.710Z,7.91
2023-05-24T11:03:10.001Z,7.90
2023-05-24T11:05:36.010Z,7.89
2023-05-24T11:08:12.945Z,7.88
2023-05-24T11:10:47.712Z,7.88
2023-05-24T11:13:22.309Z,7.89
2023-05-24T11:15:59.672Z,7.89
2023-05-24T11:18:29.213Z,7.88
2023-05-24T11:21:04.988Z,7.88
2023-05-24T11:23:39.809Z,7.88
2023-05-24T11:26:03.519Z,7.87
2023-05-24T11:28:40.164Z,7.86
2023-05-24T11:31:17.188Z,7.84
2023-05-24T11:33:51.052Z,7.83
2023-05-24T11:36:28.120Z,7.82
2023-05-24T11:39:02.657Z,7.82
2023-05-24T11:41:38.217Z,7.82
2023-05-24T11:44:14.850Z,7.82
2023-05-24T11:46:51.340Z,7.82
2023-05-24T11:49:23.281Z,7.82
2023-05-24T11:52:02.466Z,7.82
2023-05-24T11:54:38.851Z,7.81
2023-05-24T11:57:18.001Z,7.80
2023-05-24T11:59:45.325Z,7.80
2023-05-24T12:02:12.400Z,7.80
2023-05-24T12:04:46.345Z,7.81
2023-05-24T12:07:21.195Z,7.79
2023-05-24T12:09:58.664Z,7.76
2023-05-24T12:12:42.490Z,7.75
2023-05-24T12:15:23.482Z,7.73
2023-05-24T12:17:52.797Z,7.73
2023-05-24T12:20:30.869Z,7.72
2023-05-24T12:22:59.492Z,7.72
2023-05-24T12:25:28.293Z,7.72
2023-05-24T12:28:03.422Z,7.72
2023-05-24T12:30:44.325Z,7.72
2023-05-24T12:33:21.927Z,7.70
2023-05-24T12:35:57.438Z,7.69
2023-05-24T12:38:28.548Z,7.67
2023-05-24T12:41:12.995Z,7.65
2023-05-24T12:43:49.135Z,7.63
2023-05-24T12:46:23.363Z,7.64
2023-05-24T12:48:57.416Z,7.65
2023-05-24T12:51:31.380Z,7.67
2023-05-24T12:54:06.551Z,7.67
2023-05-24T12:56:29.597Z,7.67
2023-05-24T12:59:04.347Z,7.67
2023-05-24T13:01:29.735Z,7.67
2023-05-24T13:04:04.714Z,7.67
2023-05-24T13:06:32.898Z,7.67
2023-05-24T13:09:07.544Z,7.68
2023-05-24T13:11:41.155Z,7.68
2023-05-24T13:14:09.056Z,7.69
2023-05-24T13:16:45.182Z,7.72
2023-05-24T13:19:19.509Z,7.74
2023-05-24T13:21:47.946Z,7.76
2023-05-24T13:24:22.711Z,7.78
2023-05-24T13:26:57.618Z,7.79
2023-05-24T13:29:39.428Z,7.79
2023-05-24T13:32:13.651Z,7.81
2023-05-24T13:34:38.320Z,7.83
2023-05-24T13:37:12.096Z,7.86
2023-05-24T13:39:48.157Z,7.90
2023-05-24T13:42:24.229Z,7.93
2023-05-24T13:44:48.719Z,7.97
2023-05-24T13:47:35.345Z,8.01
2023-05-24T13:50:16.792Z,8.11
2023-05-24T13:52:42.609Z,8.22
2023-05-24T13:55:06.723Z,8.33
2023-05-24T13:57:39.393Z,8.45
2023-05-24T14:00:19.231Z,8.58
2023-05-24T14:02:42.033Z,8.66
2023-05-24T14:05:26.565Z,8.72
2023-05-24T14:07:56.722Z,8.76
2023-05-24T14:10:31.318Z,8.79
2023-05-24T14:13:26.653Z,8.82
2023-05-24T14:16:02.466Z,8.86
2023-05-24T14:18:30.593Z,8.90
2023-05-24T14:21:06.079Z,8.94
2023-05-24T14:23:34.589Z,9.00
2023-05-24T14:25:53.909Z,9.06
2023-05-24T14:28:16.417Z,9.14
2023-05-24T14:30:50.915Z,9.23
2023-05-24T14:33:27.752Z,9.32
2023-05-24T14:35:44.687Z,9.42
2023-05-24T14:38:06.793Z,9.50
2023-05-24T14:40:43.464Z,9.60
2023-05-24T14:43:18.931Z,9.68
2023-05-24T14:45:43.082Z,9.78
2023-05-24T14:48:13.482Z,9.88
2023-05-24T14:50:43.010Z,9.99
2023-05-24T14:53:18.368Z,10.10
2023-05-24T14:55:43.099Z,10.18
2023-05-24T14:58:03.491Z,10.26
2023-05-24T15:00:37.589Z,10.36
2023-05-24T15:03:13.785Z,10.49
2023-05-24T15:05:40.338Z,10.58
2023-05-24T15:08:05.845Z,10.63
2023-05-24T15:10:31.298Z,10.70
2023-05-24T15:12:58.908Z,10.75
2023-05-24T15:15:35.599Z,10.83
2023-05-24T15:18:00.571Z,10.93
2023-05-24T15:20:35.718Z,11.03
2023-05-24T15:23:04.785Z,11.11
2023-05-24T15:25:26.630Z,11.16
2023-05-24T15:27:47.391Z,11.22
2023-05-24T15:30:25.788Z,11.26
2023-05-24T15:32:51.090Z,11.33
2023-05-24T15:35:21.728Z,11.38
2023-05-24T15:37:57.122Z,11.44
2023-05-24T15:40:25.176Z,11.50
2023-05-24T15:42:54.005Z,11.53
2023-05-24T15:45:28.472Z,11.60
2023-05-24T15:47:54.225Z,11.68
2023-05-24T15:50:20.261Z,11.77
2023-05-24T15:53:00.453Z,11.86
2023-05-24T15:55:20.124Z,11.92
2023-05-24T15:57:54.953Z,12.00
2023-05-24T16:00:30.298Z,12.11
2023-05-24T16:02:51.675Z,12.22
2023-05-24T16:05:21.821Z,12.38
2023-05-24T16:07:48.210Z,12.45
2023-05-24T16:10:17.114Z,12.58
2023-05-24T16:12:40.767Z,12.72
2023-05-24T16:15:09.990Z,12.76
2023-05-24T16:17:36.969Z,12.82
2023-05-24T16:20:04.780Z,12.92
2023-05-24T16:22:40.855Z,12.95
2023-05-24T16:24:59.975Z,13.06
2023-05-24T16:27:34.367Z,13.10
2023-05-24T16:30:08.447Z,13.21
2023-05-24T16:32:34.695Z,13.31
2023-05-24T16:35:12.042Z,13.39
2023-05-24T16:37:44.467Z,13.51
2023-05-24T16:40:13.163Z,13.65
2023-05-24T16:42:49.627Z,13.71
2023-05-24T16:45:16.569Z,13.79
2023-05-24T16:47:45.785Z,13.82
2023-05-24T16:50:07.071Z,13.85
2023-05-24T16:52:41.125Z,13.87
2023-05-24T16:55:07.838Z,13.91
2023-05-24T16:57:43.045Z,13.97
2023-05-24T17:00:05.163Z,13.97
2023-05-24T17:02:41.274Z,13.92
2023-05-24T17:05:16.315Z,13.95
2023-05-24T17:07:37.117Z,13.91
2023-05-24T17:10:03.647Z,13.84
2023-05-24T17:12:38.052Z,13.78
2023-05-24T17:15:14.793Z,13.76
2023-05-24T17:17:48.405Z,13.76
2023-05-24T17:20:22.423Z,13.75
2023-05-24T17:22:46.853Z,13.79
2023-05-24T17:25:20.474Z,13.84
2023-05-24T17:27:55.030Z,13.90
2023-05-24T17:30:18.774Z,13.93
2023-05-24T17:32:52.609Z,13.98
2023-05-24T17:35:22.845Z,14.03
2023-05-24T17:37:57.029Z,14.10
2023-05-24T17:40:30.502Z,14.15
2023-05-24T17:43:03.935Z,14.19
2023-05-24T17:45:27.310Z,14.21
2023-05-24T17:47:51.586Z,14.19
2023-05-24T17:50:18.328Z,14.21
2023-05-24T17:52:49.941Z,14.19
2023-05-24T17:55:12.639Z,14.26
2023-05-24T17:57:36.377Z,14.27
2023-05-24T18:00:04.777Z,14.23
2023-05-24T18:02:25.398Z,14.25
2023-05-24T18:04:53.700Z,14.32
2023-05-24T18:07:12.133Z,14.36
2023-05-24T18:09:38.546Z,14.45
2023-05-24T18:12:10.159Z,14.50
2023-05-24T18:14:45.401Z,14.54
2023-05-24T18:17:03.856Z,14.57
2023-05-24T18:19:32.814Z,14.57
2023-05-24T18:21:52.208Z,14.60
2023-05-24T18:24:20.872Z,14.64
2023-05-24T18:26:48.272Z,14.68
2023-05-24T18:29:21.962Z,14.70
2023-05-24T18:31:53.594Z,14.81
2023-05-24T18:34:18.953Z,14.85
2023-05-24T18:36:40.301Z,14.91
2023-05-24T18:39:12.908Z,14.98
2023-05-24T18:41:45.160Z,14.98
2023-05-24T18:44:17.796Z,14.91
2023-05-24T18:46:44.614Z,14.86
2023-05-24T18:49:13.300Z,14.85
2023-05-24T18:51:41.119Z,14.80
2023-05-24T18:53:59.081Z,14.84
2023-05-24T18:56:32.320Z,14.90
2023-05-24T18:59:03.033Z,14.94
2023-05-24T19:01:30.619Z,14.99
2023-05-24T19:03:50.252Z,14.96
2023-05-24T19:06:15.891Z,14.87
2023-05-24T19:08:42.886Z,14.86
2023-05-24T19:11:12.186Z,14.88
2023-05-24T19:13:40.979Z,14.87
2023-05-24T19:16:07.108Z,14.96
2023-05-24T19:18:34.109Z,15.03
2023-05-24T19:21:06.497Z,15.12
2023-05-24T19:23:36.901Z,15.19
2023-05-24T19:26:10.354Z,15.23
2023-05-24T19:28:49.082Z,15.26
2023-05-24T19:31:23.080Z,15.25
2023-05-24T19:34:00.062Z,15.28
2023-05-24T19:36:37.143Z,15.40
2023-05-24T19:39:11.332Z,15.44
2023-05-24T19:41:47.081Z,15.50
2023-05-24T19:44:08.758Z,15.57
2023-05-24T19:46:42.716Z,15.54
2023-05-24T19:49:18.171Z,15.55
2023-05-24T19:51:39.085Z,15.56
2023-05-24T19:54:06.560Z,15.56
2023-05-24T19:56:42.138Z,15.58
2023-05-24T19:59:08.676Z,15.58
2023-05-24T20:01:44.255Z,15.59
2023-05-24T20:04:19.299Z,15.61
2023-05-24T20:06:56.338Z,15.66
2023-05-24T20:09:32.140Z,15.67
2023-05-24T20:12:01.353Z,15.64
2023-05-24T20:14:29.312Z,15.66
2023-05-24T20:17:05.284Z,15.67
2023-05-24T20:19:33.567Z,15.62
2023-05-24T20:22:08.330Z,15.64
2023-05-24T20:24:28.445Z,15.68
2023-05-24T20:26:55.605Z,15.76
2023-05-24T20:29:23.171Z,15.77
2023-05-24T20:31:57.896Z,15.75
2023-05-24T20:34:28.926Z,15.78
2023-05-24T20:37:03.927Z,15.78
2023-05-24T20:39:40.003Z,15.83
2023-05-24T20:42:12.252Z,15.92
2023-05-24T20:44:31.290Z,16.01
2023-05-24T20:47:06.307Z,16.04
2023-05-24T20:49:42.573Z,15.97
2023-05-24T20:52:05.880Z,15.88
2023-05-24T20:54:28.640Z,15.82
2023-05-24T20:56:55.110Z,15.90
2023-05-24T20:59:16.332Z,15.84
2023-05-24T21:01:48.679Z,15.83
2023-05-24T21:04:22.600Z,15.85
2023-05-24T21:06:49.215Z,15.86
2023-05-24T21:09:24.604Z,15.83
2023-05-24T21:11:58.303Z,15.87
2023-05-24T21:14:25.169Z,15.94
2023-05-24T21:16:42.546Z,15.93
2023-05-24T21:19:09.843Z,15.98
2023-05-24T21:21:44.639Z,15.99
2023-05-24T21:24:17.731Z,16.01
2023-05-24T21:26:48.716Z,16.05
2023-05-24T21:29:14.217Z,16.09
2023-05-24T21:31:42.866Z,16.13
2023-05-24T21:34:05.485Z,16.14
2023-05-24T21:36:36.145Z,16.21
2023-05-24T21:39:09.628Z,16.28
2023-05-24T21:41:44.177Z,16.33
2023-05-24T21:44:19.808Z,16.40
2023-05-24T21:46:47.876Z,16.44
2023-05-24T21:49:18.365Z,16.48
2023-05-24T21:51:52.098Z,16.48
2023-05-24T21:54:21.107Z,16.38
2023-05-24T21:56:41.621Z,16.32
2023-05-24T21:59:11.217Z,16.34
2023-05-24T22:01:44.968Z,16.37
2023-05-24T22:04:06.203Z,16.20
2023-05-24T22:06:31.482Z,16.12
2023-05-24T22:09:07.417Z,16.19
2023-05-24T22:11:24.728Z,16.34
2023-05-24T22:13:56.957Z,16.35
2023-05-24T22:16:23.116Z,16.40
2023-05-24T22:18:58.278Z,16.42
2023-05-24T22:21:34.131Z,16.42
2023-05-24T22:23:55.817Z,16.40
2023-05-24T22:26:25.446Z,16.32
2023-05-24T22:29:05.218Z,16.32
2023-05-24T22:31:34.381Z,16.35
2023-05-24T22:34:03.960Z,16.42
2023-05-24T22:36:43.404Z,16.39
2023-05-24T22:39:07.470Z,16.35
2023-05-24T22:41:39.760Z,16.21
2023-05-24T22:44:15.379Z,16.15
2023-05-24T22:46:49.366Z,16.01
2023-05-24T22:49:14.355Z,15.97
2023-05-24T22:51:45.241Z,15.97
2023-05-24T22:54:19.256Z,16.17
2023-05-24T22:56:53.244Z,16.27
2023-05-24T22:59:21.255Z,16.38
2023-05-24T23:01:42.384Z,16.49
2023-05-24T23:04:20.639Z,16.59
2023-05-24T23:06:47.212Z,16.65
2023-05-24T23:09:13.885Z,16.68
2023-05-24T23:11:47.261Z,16.71
2023-05-24T23:14:21.629Z,16.78
2023-05-24T23:16:47.301Z,16.83
2023-05-24T23:19:19.311Z,16.81
2023-05-24T23:21:48.672Z,16.77
2023-05-24T23:24:23.409Z,16.84
2023-05-24T23:26:44.308Z,16.85
2023-05-24T23:29:19.604Z,16.73
2023-05-24T23:31:48.731Z,16.73
2023-05-24T23:34:23.387Z,16.71
2023-05-24T23:36:46.929Z,16.70
2023-05-24T23:39:12.097Z,16.83
2023-05-24T23:41:48.008Z,16.83
2023-05-24T23:44:14.929Z,16.80
2023-05-24T23:46:43.143Z,16.81
2023-05-24T23:49:08.982Z,16.75
2023-05-24T23:51:45.095Z,16.71
2023-05-24T23:54:12.381Z,16.72
2023-05-24T23:56:47.634Z,16.67
2023-05-24T23:59:22.108Z,16.65
